sensor_id;sensor_type;location;lat;lon;timestamp;temperature;humidity
25214;DHT22;13160;51.834;4.706;2022-07-23T00:01:03;17.60;99.90
25214;DHT22;13160;51.834;4.706;2022-07-23T00:03:32;17.60;99.90
25214;DHT22;13160;51.834;4.706;2022-07-23T00:06:01;17.60;99.90
25214;DHT22;13160;51.834;4.706;2022-07-23T00:08:35;17.60;99.90
25214;DHT22;13160;51.834;4.706;2022-07-23T00:11:04;17.60;99.90
25214;DHT22;13160;51.834;4.706;2022-07-23T00:13:32;17.60;99.90
25214;DHT22;13160;51.834;4.706;2022-07-23T00:16:00;17.60;99.90
25214;DHT22;13160;51.834;4.706;2022-07-23T00:18:28;17.60;99.90
25214;DHT22;13160;51.834;4.706;2022-07-23T00:20:57;17.60;99.90
25214;DHT22;13160;51.834;4.706;2022-07-23T00:23:26;17.60;99.90
25214;DHT22;13160;51.834;4.706;2022-07-23T00:25:55;17.60;99.90
25214;DHT22;13160;51.834;4.706;2022-07-23T00:28:24;17.60;99.90
25214;DHT22;13160;51.834;4.706;2022-07-23T00:30:52;17.60;99.90
25214;DHT22;13160;51.834;4.706;2022-07-23T00:33:20;17.50;99.90
25214;DHT22;13160;51.834;4.706;2022-07-23T00:35:49;17.60;99.90
25214;DHT22;13160;51.834;4.706;2022-07-23T00:38:17;17.50;99.90
25214;DHT22;13160;51.834;4.706;2022-07-23T00:40:46;17.50;99.90
25214;DHT22;13160;51.834;4.706;2022-07-23T00:43:14;17.50;99.90
25214;DHT22;13160;51.834;4.706;2022-07-23T00:45:43;17.50;99.90
25214;DHT22;13160;51.834;4.706;2022-07-23T00:48:11;17.50;99.90
25214;DHT22;13160;51.834;4.706;2022-07-23T00:50:39;17.40;99.90
25214;DHT22;13160;51.834;4.706;2022-07-23T00:53:08;17.40;99.90
25214;DHT22;13160;51.834;4.706;2022-07-23T00:55:36;17.40;99.90
25214;DHT22;13160;51.834;4.706;2022-07-23T00:58:08;17.40;99.90
25214;DHT22;13160;51.834;4.706;2022-07-23T01:00:37;17.40;99.90
25214;DHT22;13160;51.834;4.706;2022-07-23T01:03:05;17.40;99.90
25214;DHT22;13160;51.834;4.706;2022-07-23T01:05:34;17.40;99.90
25214;DHT22;13160;51.834;4.706;2022-07-23T01:08:02;17.40;99.90
25214;DHT22;13160;51.834;4.706;2022-07-23T01:10:30;17.40;99.90
25214;DHT22;13160;51.834;4.706;2022-07-23T01:12:59;17.50;99.90
25214;DHT22;13160;51.834;4.706;2022-07-23T01:15:31;17.40;99.90
25214;DHT22;13160;51.834;4.706;2022-07-23T01:18:00;17.40;99.90
25214;DHT22;13160;51.834;4.706;2022-07-23T01:20:29;17.40;99.90
25214;DHT22;13160;51.834;4.706;2022-07-23T01:22:59;17.40;99.90
25214;DHT22;13160;51.834;4.706;2022-07-23T01:25:27;17.30;99.90
25214;DHT22;13160;51.834;4.706;2022-07-23T01:27:55;17.30;99.90
25214;DHT22;13160;51.834;4.706;2022-07-23T01:30:23;17.30;99.90
25214;DHT22;13160;51.834;4.706;2022-07-23T01:32:52;17.20;99.90
25214;DHT22;13160;51.834;4.706;2022-07-23T01:35:20;17.20;99.90
25214;DHT22;13160;51.834;4.706;2022-07-23T01:37:48;17.20;99.90
25214;DHT22;13160;51.834;4.706;2022-07-23T01:40:18;17.10;99.90
25214;DHT22;13160;51.834;4.706;2022-07-23T01:42:48;17.10;99.90
25214;DHT22;13160;51.834;4.706;2022-07-23T01:45:16;17.10;99.90
25214;DHT22;13160;51.834;4.706;2022-07-23T01:47:45;17.10;99.90
25214;DHT22;13160;51.834;4.706;2022-07-23T01:50:13;17.10;99.90
25214;DHT22;13160;51.834;4.706;2022-07-23T01:52:41;17.00;99.90
25214;DHT22;13160;51.834;4.706;2022-07-23T01:55:10;17.00;99.90
25214;DHT22;13160;51.834;4.706;2022-07-23T01:57:46;17.00;99.90
25214;DHT22;13160;51.834;4.706;2022-07-23T02:00:14;17.00;99.90
25214;DHT22;13160;51.834;4.706;2022-07-23T02:02:43;16.90;99.90
25214;DHT22;13160;51.834;4.706;2022-07-23T02:05:11;16.90;99.90
25214;DHT22;13160;51.834;4.706;2022-07-23T02:07:40;16.90;99.90
25214;DHT22;13160;51.834;4.706;2022-07-23T02:10:09;16.90;99.90
25214;DHT22;13160;51.834;4.706;2022-07-23T02:12:37;16.90;99.90
25214;DHT22;13160;51.834;4.706;2022-07-23T02:15:07;16.90;99.90
25214;DHT22;13160;51.834;4.706;2022-07-23T02:17:36;16.80;99.90
25214;DHT22;13160;51.834;4.706;2022-07-23T02:20:06;16.80;99.90
25214;DHT22;13160;51.834;4.706;2022-07-23T02:22:35;16.80;99.90
25214;DHT22;13160;51.834;4.706;2022-07-23T02:25:04;16.80;99.90
25214;DHT22;13160;51.834;4.706;2022-07-23T02:27:33;16.80;99.90
25214;DHT22;13160;51.834;4.706;2022-07-23T02:30:02;16.80;99.90
25214;DHT22;13160;51.834;4.706;2022-07-23T02:32:32;16.80;99.90
25214;DHT22;13160;51.834;4.706;2022-07-23T02:35:01;16.80;99.90
25214;DHT22;13160;51.834;4.706;2022-07-23T02:37:29;16.80;99.90
25214;DHT22;13160;51.834;4.706;2022-07-23T02:39:58;16.80;99.90
25214;DHT22;13160;51.834;4.706;2022-07-23T02:42:26;16.80;99.90
25214;DHT22;13160;51.834;4.706;2022-07-23T02:44:54;16.80;99.90
25214;DHT22;13160;51.834;4.706;2022-07-23T02:47:22;16.80;99.90
25214;DHT22;13160;51.834;4.706;2022-07-23T02:49:52;16.70;99.90
25214;DHT22;13160;51.834;4.706;2022-07-23T02:52:20;16.70;99.90
25214;DHT22;13160;51.834;4.706;2022-07-23T02:54:48;16.70;99.90
25214;DHT22;13160;51.834;4.706;2022-07-23T02:57:17;16.70;99.90
25214;DHT22;13160;51.834;4.706;2022-07-23T02:59:45;16.60;99.90
25214;DHT22;13160;51.834;4.706;2022-07-23T03:02:13;16.60;99.90
25214;DHT22;13160;51.834;4.706;2022-07-23T03:04:41;16.60;99.90
25214;DHT22;13160;51.834;4.706;2022-07-23T03:07:11;16.60;99.90
25214;DHT22;13160;51.834;4.706;2022-07-23T03:09:40;16.60;99.90
25214;DHT22;13160;51.834;4.706;2022-07-23T03:12:08;16.50;99.90
25214;DHT22;13160;51.834;4.706;2022-07-23T03:14:40;16.50;99.90
25214;DHT22;13160;51.834;4.706;2022-07-23T03:17:08;16.50;99.90
25214;DHT22;13160;51.834;4.706;2022-07-23T03:19:37;16.50;99.90
25214;DHT22;13160;51.834;4.706;2022-07-23T03:22:05;16.50;99.90
25214;DHT22;13160;51.834;4.706;2022-07-23T03:24:35;16.50;99.90
25214;DHT22;13160;51.834;4.706;2022-07-23T03:27:21;16.40;99.90
25214;DHT22;13160;51.834;4.706;2022-07-23T03:29:50;16.30;99.90
25214;DHT22;13160;51.834;4.706;2022-07-23T03:32:18;16.30;99.90
25214;DHT22;13160;51.834;4.706;2022-07-23T03:34:47;16.30;99.90
25214;DHT22;13160;51.834;4.706;2022-07-23T03:37:16;16.30;99.90
25214;DHT22;13160;51.834;4.706;2022-07-23T03:39:45;16.20;99.90
25214;DHT22;13160;51.834;4.706;2022-07-23T03:42:14;16.20;99.90
25214;DHT22;13160;51.834;4.706;2022-07-23T03:44:42;16.20;99.90
25214;DHT22;13160;51.834;4.706;2022-07-23T03:47:10;16.20;99.90
25214;DHT22;13160;51.834;4.706;2022-07-23T03:49:38;16.20;99.90
25214;DHT22;13160;51.834;4.706;2022-07-23T03:52:07;16.20;99.90
25214;DHT22;13160;51.834;4.706;2022-07-23T03:54:35;16.20;99.90
25214;DHT22;13160;51.834;4.706;2022-07-23T03:57:04;16.20;99.90
25214;DHT22;13160;51.834;4.706;2022-07-23T03:59:33;16.20;99.90
25214;DHT22;13160;51.834;4.706;2022-07-23T04:02:01;16.20;99.90
25214;DHT22;13160;51.834;4.706;2022-07-23T04:04:29;16.10;99.90
25214;DHT22;13160;51.834;4.706;2022-07-23T04:06:57;16.10;99.90
25214;DHT22;13160;51.834;4.706;2022-07-23T04:09:26;16.10;99.90
25214;DHT22;13160;51.834;4.706;2022-07-23T04:11:54;16.10;99.90
25214;DHT22;13160;51.834;4.706;2022-07-23T04:14:24;16.00;99.90
25214;DHT22;13160;51.834;4.706;2022-07-23T04:16:52;16.00;99.90
25214;DHT22;13160;51.834;4.706;2022-07-23T04:19:20;16.10;99.90
25214;DHT22;13160;51.834;4.706;2022-07-23T04:21:48;16.00;99.90
25214;DHT22;13160;51.834;4.706;2022-07-23T04:24:17;16.00;99.90
25214;DHT22;13160;51.834;4.706;2022-07-23T04:26:45;16.00;99.90
25214;DHT22;13160;51.834;4.706;2022-07-23T04:29:14;16.10;99.90
25214;DHT22;13160;51.834;4.706;2022-07-23T04:31:44;16.10;99.90
25214;DHT22;13160;51.834;4.706;2022-07-23T04:34:12;16.10;99.90
25214;DHT22;13160;51.834;4.706;2022-07-23T04:36:40;16.10;99.90
25214;DHT22;13160;51.834;4.706;2022-07-23T04:39:09;16.20;99.90
25214;DHT22;13160;51.834;4.706;2022-07-23T04:41:37;16.30;99.90
25214;DHT22;13160;51.834;4.706;2022-07-23T04:44:05;16.30;99.90
25214;DHT22;13160;51.834;4.706;2022-07-23T04:46:33;16.30;99.90
25214;DHT22;13160;51.834;4.706;2022-07-23T04:49:03;16.40;99.90
25214;DHT22;13160;51.834;4.706;2022-07-23T04:51:32;16.40;99.90
25214;DHT22;13160;51.834;4.706;2022-07-23T04:54:00;16.40;99.90
25214;DHT22;13160;51.834;4.706;2022-07-23T04:56:29;16.50;99.90
25214;DHT22;13160;51.834;4.706;2022-07-23T04:58:57;16.50;99.90
25214;DHT22;13160;51.834;4.706;2022-07-23T05:01:25;16.50;99.90
25214;DHT22;13160;51.834;4.706;2022-07-23T05:03:54;16.50;99.90
25214;DHT22;13160;51.834;4.706;2022-07-23T05:06:23;16.60;99.90
25214;DHT22;13160;51.834;4.706;2022-07-23T05:08:51;16.60;99.90
25214;DHT22;13160;51.834;4.706;2022-07-23T05:11:22;16.60;99.90
25214;DHT22;13160;51.834;4.706;2022-07-23T05:13:53;16.60;99.90
25214;DHT22;13160;51.834;4.706;2022-07-23T05:16:21;16.60;99.90
25214;DHT22;13160;51.834;4.706;2022-07-23T05:18:50;16.60;99.90
25214;DHT22;13160;51.834;4.706;2022-07-23T05:21:18;16.60;99.90
25214;DHT22;13160;51.834;4.706;2022-07-23T05:23:47;16.70;99.90
25214;DHT22;13160;51.834;4.706;2022-07-23T05:26:16;16.70;99.90
25214;DHT22;13160;51.834;4.706;2022-07-23T05:28:47;16.70;99.90
25214;DHT22;13160;51.834;4.706;2022-07-23T05:31:16;16.70;99.90
25214;DHT22;13160;51.834;4.706;2022-07-23T05:33:45;16.70;99.90
25214;DHT22;13160;51.834;4.706;2022-07-23T05:36:13;16.80;99.90
25214;DHT22;13160;51.834;4.706;2022-07-23T05:38:42;16.80;99.90
25214;DHT22;13160;51.834;4.706;2022-07-23T05:41:11;16.90;99.90
25214;DHT22;13160;51.834;4.706;2022-07-23T05:43:39;16.90;99.90
25214;DHT22;13160;51.834;4.706;2022-07-23T05:46:08;16.90;99.90
25214;DHT22;13160;51.834;4.706;2022-07-23T05:48:36;16.90;99.90
25214;DHT22;13160;51.834;4.706;2022-07-23T05:51:04;17.00;99.90
25214;DHT22;13160;51.834;4.706;2022-07-23T05:53:34;17.00;99.90
25214;DHT22;13160;51.834;4.706;2022-07-23T05:56:02;17.10;99.90
25214;DHT22;13160;51.834;4.706;2022-07-23T05:58:32;17.10;99.90
25214;DHT22;13160;51.834;4.706;2022-07-23T06:01:00;17.20;99.90
25214;DHT22;13160;51.834;4.706;2022-07-23T06:03:28;17.20;99.90
25214;DHT22;13160;51.834;4.706;2022-07-23T06:05:57;17.30;99.90
25214;DHT22;13160;51.834;4.706;2022-07-23T06:08:25;17.30;99.90
25214;DHT22;13160;51.834;4.706;2022-07-23T06:10:53;17.30;99.90
25214;DHT22;13160;51.834;4.706;2022-07-23T06:13:22;17.40;99.90
25214;DHT22;13160;51.834;4.706;2022-07-23T06:15:51;17.40;99.90
25214;DHT22;13160;51.834;4.706;2022-07-23T06:18:19;17.50;99.90
25214;DHT22;13160;51.834;4.706;2022-07-23T06:20:48;17.50;99.90
25214;DHT22;13160;51.834;4.706;2022-07-23T06:23:20;17.60;99.90
25214;DHT22;13160;51.834;4.706;2022-07-23T06:25:48;17.70;99.90
25214;DHT22;13160;51.834;4.706;2022-07-23T06:28:16;17.70;99.90
25214;DHT22;13160;51.834;4.706;2022-07-23T06:30:45;17.80;99.90
25214;DHT22;13160;51.834;4.706;2022-07-23T06:33:14;17.90;99.90
25214;DHT22;13160;51.834;4.706;2022-07-23T06:35:43;17.90;99.90
25214;DHT22;13160;51.834;4.706;2022-07-23T06:38:11;18.00;99.90
25214;DHT22;13160;51.834;4.706;2022-07-23T06:40:39;18.20;99.90
25214;DHT22;13160;51.834;4.706;2022-07-23T06:43:08;18.40;99.90
25214;DHT22;13160;51.834;4.706;2022-07-23T06:45:36;18.60;99.90
25214;DHT22;13160;51.834;4.706;2022-07-23T06:48:04;18.90;99.90
25214;DHT22;13160;51.834;4.706;2022-07-23T06:50:34;19.00;99.90
25214;DHT22;13160;51.834;4.706;2022-07-23T06:53:02;19.10;99.90
25214;DHT22;13160;51.834;4.706;2022-07-23T06:55:30;19.30;99.90
25214;DHT22;13160;51.834;4.706;2022-07-23T06:57:59;19.40;99.90
25214;DHT22;13160;51.834;4.706;2022-07-23T07:00:27;19.50;99.90
25214;DHT22;13160;51.834;4.706;2022-07-23T07:02:57;19.60;99.90
25214;DHT22;13160;51.834;4.706;2022-07-23T07:05:25;19.80;99.90
25214;DHT22;13160;51.834;4.706;2022-07-23T07:07:55;20.30;99.90
25214;DHT22;13160;51.834;4.706;2022-07-23T07:10:23;20.70;99.90
25214;DHT22;13160;51.834;4.706;2022-07-23T07:12:52;21.30;99.60
25214;DHT22;13160;51.834;4.706;2022-07-23T07:15:20;22.00;98.40
25214;DHT22;13160;51.834;4.706;2022-07-23T07:17:48;22.60;97.20
25214;DHT22;13160;51.834;4.706;2022-07-23T07:20:17;23.00;96.30
25214;DHT22;13160;51.834;4.706;2022-07-23T07:22:45;23.30;95.00
25214;DHT22;13160;51.834;4.706;2022-07-23T07:25:15;23.70;94.30
25214;DHT22;13160;51.834;4.706;2022-07-23T07:27:43;24.10;93.50
25214;DHT22;13160;51.834;4.706;2022-07-23T07:30:11;24.60;92.60
25214;DHT22;13160;51.834;4.706;2022-07-23T07:32:40;25.10;91.50
25214;DHT22;13160;51.834;4.706;2022-07-23T07:35:24;25.50;90.40
25214;DHT22;13160;51.834;4.706;2022-07-23T07:37:53;25.80;88.70
25214;DHT22;13160;51.834;4.706;2022-07-23T07:40:22;26.10;86.50
25214;DHT22;13160;51.834;4.706;2022-07-23T07:42:57;26.40;84.70
25214;DHT22;13160;51.834;4.706;2022-07-23T07:45:26;26.60;82.80
25214;DHT22;13160;51.834;4.706;2022-07-23T07:47:54;26.80;81.70
25214;DHT22;13160;51.834;4.706;2022-07-23T07:50:22;27.00;80.30
25214;DHT22;13160;51.834;4.706;2022-07-23T07:52:51;27.20;79.10
25214;DHT22;13160;51.834;4.706;2022-07-23T07:55:20;27.40;77.80
25214;DHT22;13160;51.834;4.706;2022-07-23T07:57:49;27.70;76.90
25214;DHT22;13160;51.834;4.706;2022-07-23T08:00:19;27.80;74.90
25214;DHT22;13160;51.834;4.706;2022-07-23T08:02:50;27.80;73.90
25214;DHT22;13160;51.834;4.706;2022-07-23T08:05:21;27.80;75.00
25214;DHT22;13160;51.834;4.706;2022-07-23T08:07:54;27.90;73.80
25214;DHT22;13160;51.834;4.706;2022-07-23T08:10:23;28.00;72.70
25214;DHT22;13160;51.834;4.706;2022-07-23T08:12:55;27.90;72.40
25214;DHT22;13160;51.834;4.706;2022-07-23T08:15:25;28.00;72.30
25214;DHT22;13160;51.834;4.706;2022-07-23T08:17:54;27.90;72.30
25214;DHT22;13160;51.834;4.706;2022-07-23T08:20:24;28.00;71.90
25214;DHT22;13160;51.834;4.706;2022-07-23T08:22:56;27.90;71.60
25214;DHT22;13160;51.834;4.706;2022-07-23T08:25:27;27.80;71.50
25214;DHT22;13160;51.834;4.706;2022-07-23T08:27:58;27.80;71.20
25214;DHT22;13160;51.834;4.706;2022-07-23T08:30:27;27.70;70.60
25214;DHT22;13160;51.834;4.706;2022-07-23T08:32:57;27.70;70.70
25214;DHT22;13160;51.834;4.706;2022-07-23T08:35:29;27.70;70.20
25214;DHT22;13160;51.834;4.706;2022-07-23T08:37:59;27.60;70.20
25214;DHT22;13160;51.834;4.706;2022-07-23T08:40:29;27.50;70.30
25214;DHT22;13160;51.834;4.706;2022-07-23T08:43:00;27.30;70.60
25214;DHT22;13160;51.834;4.706;2022-07-23T08:45:35;27.30;70.90
25214;DHT22;13160;51.834;4.706;2022-07-23T08:48:08;27.40;70.70
25214;DHT22;13160;51.834;4.706;2022-07-23T08:50:37;27.30;71.10
25214;DHT22;13160;51.834;4.706;2022-07-23T08:53:08;27.30;70.60
25214;DHT22;13160;51.834;4.706;2022-07-23T08:55:37;27.30;70.70
25214;DHT22;13160;51.834;4.706;2022-07-23T08:58:07;27.30;70.40
25214;DHT22;13160;51.834;4.706;2022-07-23T09:00:35;27.20;70.60
25214;DHT22;13160;51.834;4.706;2022-07-23T09:03:03;27.20;70.80
25214;DHT22;13160;51.834;4.706;2022-07-23T09:05:31;27.20;70.30
25214;DHT22;13160;51.834;4.706;2022-07-23T09:08:05;27.20;70.20
25214;DHT22;13160;51.834;4.706;2022-07-23T09:10:47;27.20;69.90
25214;DHT22;13160;51.834;4.706;2022-07-23T09:13:26;27.20;69.90
25214;DHT22;13160;51.834;4.706;2022-07-23T09:15:58;27.10;70.40
25214;DHT22;13160;51.834;4.706;2022-07-23T09:18:37;27.00;70.80
25214;DHT22;13160;51.834;4.706;2022-07-23T09:21:13;26.80;71.20
25214;DHT22;13160;51.834;4.706;2022-07-23T09:23:45;26.70;71.50
25214;DHT22;13160;51.834;4.706;2022-07-23T09:26:26;26.60;71.70
25214;DHT22;13160;51.834;4.706;2022-07-23T09:29:06;26.50;72.00
25214;DHT22;13160;51.834;4.706;2022-07-23T09:31:47;26.40;72.60
25214;DHT22;13160;51.834;4.706;2022-07-23T09:34:19;26.30;72.50
25214;DHT22;13160;51.834;4.706;2022-07-23T09:36:51;26.20;73.30
25214;DHT22;13160;51.834;4.706;2022-07-23T09:39:29;26.10;73.10
25214;DHT22;13160;51.834;4.706;2022-07-23T09:42:12;26.10;73.70
25214;DHT22;13160;51.834;4.706;2022-07-23T09:44:43;26.00;73.50
25214;DHT22;13160;51.834;4.706;2022-07-23T09:47:12;26.00;73.70
25214;DHT22;13160;51.834;4.706;2022-07-23T09:49:40;25.90;74.00
25214;DHT22;13160;51.834;4.706;2022-07-23T09:52:26;26.00;74.00
25214;DHT22;13160;51.834;4.706;2022-07-23T09:55:03;26.00;73.40
25214;DHT22;13160;51.834;4.706;2022-07-23T09:57:32;26.00;73.80
25214;DHT22;13160;51.834;4.706;2022-07-23T10:00:04;26.00;74.30
25214;DHT22;13160;51.834;4.706;2022-07-23T10:02:35;26.10;74.00
25214;DHT22;13160;51.834;4.706;2022-07-23T10:05:05;26.10;73.30
25214;DHT22;13160;51.834;4.706;2022-07-23T10:07:37;26.00;74.00
25214;DHT22;13160;51.834;4.706;2022-07-23T10:10:07;26.00;73.40
25214;DHT22;13160;51.834;4.706;2022-07-23T10:12:36;26.10;73.60
25214;DHT22;13160;51.834;4.706;2022-07-23T10:15:24;26.00;73.60
25214;DHT22;13160;51.834;4.706;2022-07-23T10:17:53;26.10;72.80
25214;DHT22;13160;51.834;4.706;2022-07-23T10:20:21;26.10;72.50
25214;DHT22;13160;51.834;4.706;2022-07-23T10:22:56;26.10;72.30
25214;DHT22;13160;51.834;4.706;2022-07-23T10:25:34;26.20;71.80
25214;DHT22;13160;51.834;4.706;2022-07-23T10:31:28;26.20;71.90
25214;DHT22;13160;51.834;4.706;2022-07-23T10:34:27;26.20;72.60
25214;DHT22;13160;51.834;4.706;2022-07-23T10:37:07;26.20;72.90
25214;DHT22;13160;51.834;4.706;2022-07-23T10:39:36;26.30;72.50
25214;DHT22;13160;51.834;4.706;2022-07-23T10:42:09;26.40;72.50
25214;DHT22;13160;51.834;4.706;2022-07-23T10:44:41;26.50;72.00
25214;DHT22;13160;51.834;4.706;2022-07-23T10:47:12;26.50;71.70
25214;DHT22;13160;51.834;4.706;2022-07-23T10:50:20;26.50;71.30
25214;DHT22;13160;51.834;4.706;2022-07-23T10:53:09;26.50;71.00
25214;DHT22;13160;51.834;4.706;2022-07-23T10:55:45;26.50;70.90
25214;DHT22;13160;51.834;4.706;2022-07-23T10:58:22;26.60;70.10
25214;DHT22;13160;51.834;4.706;2022-07-23T11:00:51;26.60;70.00
25214;DHT22;13160;51.834;4.706;2022-07-23T11:03:34;26.70;69.90
25214;DHT22;13160;51.834;4.706;2022-07-23T11:06:06;26.70;69.40
25214;DHT22;13160;51.834;4.706;2022-07-23T11:08:34;26.70;70.00
25214;DHT22;13160;51.834;4.706;2022-07-23T11:11:10;26.70;69.80
25214;DHT22;13160;51.834;4.706;2022-07-23T11:16:25;26.80;68.40
25214;DHT22;13160;51.834;4.706;2022-07-23T11:19:05;26.70;68.00
25214;DHT22;13160;51.834;4.706;2022-07-23T11:21:47;26.70;68.00
25214;DHT22;13160;51.834;4.706;2022-07-23T11:24:24;26.90;68.70
25214;DHT22;13160;51.834;4.706;2022-07-23T11:27:03;27.00;68.10
25214;DHT22;13160;51.834;4.706;2022-07-23T11:29:44;27.10;68.10
25214;DHT22;13160;51.834;4.706;2022-07-23T11:35:25;27.30;68.60
25214;DHT22;13160;51.834;4.706;2022-07-23T11:38:03;27.40;68.40
25214;DHT22;13160;51.834;4.706;2022-07-23T11:40:34;27.50;67.40
25214;DHT22;13160;51.834;4.706;2022-07-23T11:43:04;27.60;66.90
25214;DHT22;13160;51.834;4.706;2022-07-23T11:45:36;27.60;67.10
25214;DHT22;13160;51.834;4.706;2022-07-23T11:48:08;27.50;66.30
25214;DHT22;13160;51.834;4.706;2022-07-23T11:50:39;27.50;67.20
25214;DHT22;13160;51.834;4.706;2022-07-23T11:53:07;27.60;67.00
25214;DHT22;13160;51.834;4.706;2022-07-23T11:55:35;27.50;66.50
25214;DHT22;13160;51.834;4.706;2022-07-23T11:58:04;27.50;66.70
25214;DHT22;13160;51.834;4.706;2022-07-23T12:00:32;27.30;66.60
25214;DHT22;13160;51.834;4.706;2022-07-23T12:03:06;27.30;66.10
25214;DHT22;13160;51.834;4.706;2022-07-23T12:05:36;27.30;66.40
25214;DHT22;13160;51.834;4.706;2022-07-23T12:08:08;27.30;66.60
25214;DHT22;13160;51.834;4.706;2022-07-23T12:10:39;27.40;65.90
25214;DHT22;13160;51.834;4.706;2022-07-23T12:13:11;27.50;65.60
25214;DHT22;13160;51.834;4.706;2022-07-23T12:15:44;27.60;64.60
25214;DHT22;13160;51.834;4.706;2022-07-23T12:18:16;27.70;65.00
25214;DHT22;13160;51.834;4.706;2022-07-23T12:20:49;27.70;64.90
25214;DHT22;13160;51.834;4.706;2022-07-23T12:23:20;27.80;64.80
25214;DHT22;13160;51.834;4.706;2022-07-23T12:25:50;27.90;64.10
25214;DHT22;13160;51.834;4.706;2022-07-23T12:28:21;27.90;63.50
25214;DHT22;13160;51.834;4.706;2022-07-23T12:30:52;27.80;63.40
25214;DHT22;13160;51.834;4.706;2022-07-23T12:33:23;27.80;63.70
25214;DHT22;13160;51.834;4.706;2022-07-23T12:35:54;27.80;64.00
25214;DHT22;13160;51.834;4.706;2022-07-23T12:38:26;27.80;64.30
25214;DHT22;13160;51.834;4.706;2022-07-23T12:40:57;27.80;63.70
25214;DHT22;13160;51.834;4.706;2022-07-23T12:43:28;27.80;63.50
25214;DHT22;13160;51.834;4.706;2022-07-23T12:46:04;27.80;64.50
25214;DHT22;13160;51.834;4.706;2022-07-23T12:48:34;27.90;65.00
25214;DHT22;13160;51.834;4.706;2022-07-23T12:51:07;28.00;64.90
25214;DHT22;13160;51.834;4.706;2022-07-23T12:53:45;28.10;64.00
25214;DHT22;13160;51.834;4.706;2022-07-23T12:56:16;28.30;63.60
25214;DHT22;13160;51.834;4.706;2022-07-23T12:58:48;28.30;63.00
25214;DHT22;13160;51.834;4.706;2022-07-23T13:01:30;28.40;61.90
25214;DHT22;13160;51.834;4.706;2022-07-23T13:04:04;28.40;62.30
25214;DHT22;13160;51.834;4.706;2022-07-23T13:06:42;28.40;61.70
25214;DHT22;13160;51.834;4.706;2022-07-23T13:09:15;28.30;61.40
25214;DHT22;13160;51.834;4.706;2022-07-23T13:11:45;28.30;61.80
25214;DHT22;13160;51.834;4.706;2022-07-23T13:14:15;28.30;61.20
25214;DHT22;13160;51.834;4.706;2022-07-23T13:16:47;28.40;61.90
25214;DHT22;13160;51.834;4.706;2022-07-23T13:19:18;28.40;62.00
25214;DHT22;13160;51.834;4.706;2022-07-23T13:21:50;28.30;63.00
25214;DHT22;13160;51.834;4.706;2022-07-23T13:24:18;28.30;62.40
25214;DHT22;13160;51.834;4.706;2022-07-23T13:26:48;28.30;62.70
25214;DHT22;13160;51.834;4.706;2022-07-23T13:29:18;28.30;62.80
25214;DHT22;13160;51.834;4.706;2022-07-23T13:31:47;28.30;62.50
25214;DHT22;13160;51.834;4.706;2022-07-23T13:34:17;28.30;62.40
25214;DHT22;13160;51.834;4.706;2022-07-23T13:36:46;28.30;61.90
25214;DHT22;13160;51.834;4.706;2022-07-23T13:39:15;28.30;61.50
25214;DHT22;13160;51.834;4.706;2022-07-23T13:41:43;28.30;62.10
25214;DHT22;13160;51.834;4.706;2022-07-23T13:44:17;28.40;62.20
25214;DHT22;13160;51.834;4.706;2022-07-23T13:46:48;28.50;62.00
25214;DHT22;13160;51.834;4.706;2022-07-23T13:49:17;28.60;61.30
25214;DHT22;13160;51.834;4.706;2022-07-23T13:51:45;28.70;60.40
25214;DHT22;13160;51.834;4.706;2022-07-23T13:54:15;28.70;60.70
25214;DHT22;13160;51.834;4.706;2022-07-23T13:56:45;28.70;60.20
25214;DHT22;13160;51.834;4.706;2022-07-23T13:59:16;28.70;60.90
25214;DHT22;13160;51.834;4.706;2022-07-23T14:01:44;28.70;61.00
25214;DHT22;13160;51.834;4.706;2022-07-23T14:04:33;28.80;60.80
25214;DHT22;13160;51.834;4.706;2022-07-23T14:07:02;28.80;60.60
25214;DHT22;13160;51.834;4.706;2022-07-23T14:09:31;28.90;60.40
25214;DHT22;13160;51.834;4.706;2022-07-23T14:12:00;29.00;60.20
25214;DHT22;13160;51.834;4.706;2022-07-23T14:14:28;29.00;60.60
25214;DHT22;13160;51.834;4.706;2022-07-23T14:16:56;29.10;59.80
25214;DHT22;13160;51.834;4.706;2022-07-23T14:19:27;29.10;59.60
25214;DHT22;13160;51.834;4.706;2022-07-23T14:21:57;29.20;59.50
25214;DHT22;13160;51.834;4.706;2022-07-23T14:24:25;29.10;59.40
25214;DHT22;13160;51.834;4.706;2022-07-23T14:27:01;29.20;58.80
25214;DHT22;13160;51.834;4.706;2022-07-23T14:29:32;29.20;58.80
25214;DHT22;13160;51.834;4.706;2022-07-23T14:32:01;29.20;57.90
25214;DHT22;13160;51.834;4.706;2022-07-23T14:34:30;29.30;57.10
25214;DHT22;13160;51.834;4.706;2022-07-23T14:37:01;29.30;56.00
25214;DHT22;13160;51.834;4.706;2022-07-23T14:39:30;29.30;55.50
25214;DHT22;13160;51.834;4.706;2022-07-23T14:41:58;29.20;55.00
25214;DHT22;13160;51.834;4.706;2022-07-23T14:44:28;29.20;55.30
25214;DHT22;13160;51.834;4.706;2022-07-23T14:46:57;29.10;55.50
25214;DHT22;13160;51.834;4.706;2022-07-23T14:49:27;29.10;55.40
25214;DHT22;13160;51.834;4.706;2022-07-23T14:51:55;29.10;54.90
25214;DHT22;13160;51.834;4.706;2022-07-23T14:54:23;29.10;55.40
25214;DHT22;13160;51.834;4.706;2022-07-23T14:56:53;29.00;55.30
25214;DHT22;13160;51.834;4.706;2022-07-23T14:59:22;29.00;55.50
25214;DHT22;13160;51.834;4.706;2022-07-23T15:01:52;29.00;55.40
25214;DHT22;13160;51.834;4.706;2022-07-23T15:04:21;28.90;55.50
25214;DHT22;13160;51.834;4.706;2022-07-23T15:07:03;28.90;55.70
25214;DHT22;13160;51.834;4.706;2022-07-23T15:09:31;28.90;56.00
25214;DHT22;13160;51.834;4.706;2022-07-23T15:12:02;28.90;55.90
25214;DHT22;13160;51.834;4.706;2022-07-23T15:14:33;28.80;56.10
25214;DHT22;13160;51.834;4.706;2022-07-23T15:17:03;28.80;56.40
25214;DHT22;13160;51.834;4.706;2022-07-23T15:19:31;28.80;56.30
25214;DHT22;13160;51.834;4.706;2022-07-23T15:21:59;28.80;56.50
25214;DHT22;13160;51.834;4.706;2022-07-23T15:24:29;28.70;56.30
25214;DHT22;13160;51.834;4.706;2022-07-23T15:26:57;28.70;56.50
25214;DHT22;13160;51.834;4.706;2022-07-23T15:29:25;28.60;57.00
25214;DHT22;13160;51.834;4.706;2022-07-23T15:31:54;28.60;56.60
25214;DHT22;13160;51.834;4.706;2022-07-23T15:34:26;28.50;56.40
25214;DHT22;13160;51.834;4.706;2022-07-23T15:36:55;28.50;57.00
25214;DHT22;13160;51.834;4.706;2022-07-23T15:39:25;28.40;56.60
25214;DHT22;13160;51.834;4.706;2022-07-23T15:41:55;28.40;57.10
25214;DHT22;13160;51.834;4.706;2022-07-23T15:44:24;28.30;57.10
25214;DHT22;13160;51.834;4.706;2022-07-23T15:46:55;28.30;57.40
25214;DHT22;13160;51.834;4.706;2022-07-23T15:49:27;28.30;57.50
25214;DHT22;13160;51.834;4.706;2022-07-23T15:51:57;28.30;57.60
25214;DHT22;13160;51.834;4.706;2022-07-23T15:54:26;28.20;57.50
25214;DHT22;13160;51.834;4.706;2022-07-23T15:56:56;28.20;57.60
25214;DHT22;13160;51.834;4.706;2022-07-23T15:59:32;28.10;58.20